Terminal Aerodrome Forecast
Issued by NWS

Home | Current Version | Previous Version | Text Only | Print | Product List | Glossary On
Versions: 1 2 3 4 5 6 7 8 9 10 11 12 13 14 15 16 17 18 19
000
FTUS41 KCAR 301123
TAFHUL
TAF
KHUL 301123Z 3012/3112 00000KT P6SM OVC015
      TEMPO 3012/3014 5SM -SN
     FM301400 12007KT 1 1/2SM -SN OVC015
     FM301900 14007KT 3/4SM -SN BR OVC004
     FM310200 02012KT 1/4SM SN FG VV002
     FM310800 35018G26KT 1/4SM +SN BLSN VV002=

USA.gov is the U.S. government's official web portal to all federal, state and local government web resources and services.